Time;durP1;ratioP1;P1;durP2;ratioP2;P2;SDS_P1;SDS_P2;PMS_P1;PMS_P2;Temp;Humidity;BMP_temperature;BMP_pressure;BME280_temperature;BME280_humidity;BME280_pressure;Samples;Min_cycle;Max_cycle;Signal;HPM_P1;HPM_P2
2023/10/15 00:01:28;;;;;;;;;;;;;;;11.70;85.05;94998.59;5096428;28;960;-56
2023/10/15 00:03:54;;;;;;;;;;;;;;;11.84;84.50;94997.03;5096503;28;964;-56
2023/10/15 00:06:20;;;;;;;;;;;;;;;11.87;84.20;94991.31;5096317;28;999;-56
2023/10/15 00:08:46;;;;;;;;;;;;;;;11.80;84.51;94987.69;5095964;28;1988;-56
2023/10/15 00:11:13;;;;;;;;;;;;;;;11.80;84.28;94995.72;5095957;28;1042;-55
2023/10/15 00:13:39;;;;;;;;;;;;;;;11.72;84.72;94985.88;5095984;28;1107;-56
2023/10/15 00:16:06;;;;;;;;;;;;;;;11.52;85.79;94982.72;5094804;28;1030;-56
2023/10/15 00:18:32;;;;;;;;;;;;;;;11.68;84.58;94978.34;5095936;28;975;-56
2023/10/15 00:21:11;;;;;;;;;;;;;;;11.77;84.37;94976.47;5096162;28;971;-56
2023/10/15 00:23:40;;;;;;;;;;;;;;;11.80;83.97;94971.63;5096245;28;976;-56
2023/10/15 00:26:07;;;;;;;;;;;;;;;11.84;84.07;94977.47;5095669;28;1276;-55
2023/10/15 00:28:33;;;;;;;;;;;;;;;11.67;84.91;94974.00;5095581;28;1977;-55
2023/10/15 00:31:08;;;;;;;;;;;;;;;11.66;84.34;94975.81;5095702;28;1020;-56
2023/10/15 00:33:34;;;;;;;;;;;;;;;11.56;84.51;94971.69;5095518;28;1031;-56
2023/10/15 00:36:00;;;;;;;;;;;;;;;11.41;84.73;94969.69;5095626;28;1008;-56
2023/10/15 00:38:26;;;;;;;;;;;;;;;11.42;84.79;94975.88;5095447;28;1584;-55
2023/10/15 00:41:00;;;;;;;;;;;;;;;11.36;84.93;94979.25;5095660;28;999;-55
2023/10/15 00:43:26;;;;;;;;;;;;;;;11.35;85.30;94978.44;5095402;28;1095;-55
2023/10/15 00:45:53;;;;;;;;;;;;;;;11.37;84.54;94980.94;5095469;28;996;-56
2023/10/15 00:48:33;;;;;;;;;;;;;;;11.37;84.65;94983.63;5095198;28;1968;-56
2023/10/15 00:51:03;;;;;;;;;;;;;;;11.32;84.60;94992.13;5095482;28;1141;-56
2023/10/15 00:53:29;;;;;;;;;;;;;;;11.27;84.52;94986.47;5095497;28;1055;-55
2023/10/15 00:56:08;;;;;;;;;;;;;;;11.29;84.66;94981.78;5095316;28;972;-56
2023/10/15 00:58:38;;;;;;;;;;;;;;;11.11;85.63;94976.59;5094952;28;1247;-56
2023/10/15 01:03:48;;;;;;;;;;;;;;;11.19;85.07;94968.56;5095370;28;968;-55
2023/10/15 01:06:28;;;;;;;;;;;;;;;11.17;85.25;94972.41;5095079;28;1012;-55
2023/10/15 01:08:55;;;;;;;;;;;;;;;11.09;85.13;94974.09;5095245;28;1906;-56
2023/10/15 01:11:27;;;;;;;;;;;;;;;10.97;85.95;94972.78;5095084;28;956;-55
2023/10/15 01:13:54;;;;;;;;;;;;;;;10.96;85.86;94973.78;5095107;28;1050;-56
2023/10/15 01:16:21;;;;;;;;;;;;;;;10.98;85.76;94968.25;5094988;28;1043;-56
2023/10/15 01:19:05;;;;;;;;;;;;;;;11.07;84.93;94970.75;5095052;28;968;-56
2023/10/15 01:21:32;;;;;;;;;;;;;;;10.92;85.67;94967.09;5094737;28;1961;-55
2023/10/15 01:24:07;;;;;;;;;;;;;;;11.01;85.47;94968.75;5093884;28;1032;-55
2023/10/15 01:26:36;;;;;;;;;;;;;;;10.91;85.87;94970.78;5094768;28;995;-55
2023/10/15 01:29:05;;;;;;;;;;;;;;;10.69;86.88;94967.75;5094665;28;1905;-55
2023/10/15 01:31:40;;;;;;;;;;;;;;;10.66;86.73;94973.44;5094472;28;1846;-56
2023/10/15 01:34:09;;;;;;;;;;;;;;;10.58;87.66;94973.41;5094530;28;1883;-55
2023/10/15 01:36:38;;;;;;;;;;;;;;;10.67;86.88;94974.28;5094638;28;1276;-56
2023/10/15 01:39:10;;;;;;;;;;;;;;;10.65;86.85;94976.28;5094621;28;1016;-55
2023/10/15 01:41:42;;;;;;;;;;;;;;;10.55;87.15;94971.09;5094406;28;1047;-55
2023/10/15 01:44:10;;;;;;;;;;;;;;;10.44;87.93;94966.06;5094275;28;1024;-55
2023/10/15 01:47:19;;;;;;;;;;;;;;;10.52;87.68;94969.56;5094302;28;1012;-56
2023/10/15 01:49:31;;;;;;;;;;;;;;;10.65;86.92;94966.41;5090826;28;1910;-56
2023/10/15 01:52:09;;;;;;;;;;;;;;;10.65;86.94;94962.91;5094416;28;975;-56
2023/10/15 01:54:44;;;;;;;;;;;;;;;10.52;87.46;94961.56;5094227;28;961;-56
2023/10/15 01:57:15;;;;;;;;;;;;;;;10.52;87.28;94958.88;5094355;28;964;-56
2023/10/15 01:59:45;;;;;;;;;;;;;;;10.75;86.63;94958.22;5093953;28;1227;-56
2023/10/15 02:02:17;;;;;;;;;;;;;;;10.69;86.70;94954.38;5094449;28;964;-56
2023/10/15 02:04:44;;;;;;;;;;;;;;;10.65;86.71;94953.03;5093241;28;1071;-56
2023/10/15 02:07:13;;;;;;;;;;;;;;;10.60;86.65;94958.03;5094101;28;976;-56
2023/10/15 02:09:39;;;;;;;;;;;;;;;10.57;87.24;94955.72;5094125;28;1911;-56
2023/10/15 02:12:08;;;;;;;;;;;;;;;10.67;86.80;94959.06;5093847;28;964;-56
2023/10/15 02:14:34;;;;;;;;;;;;;;;10.87;85.54;94961.41;5093635;28;1044;-56
2023/10/15 02:17:05;;;;;;;;;;;;;;;10.81;85.19;94959.41;5093955;28;1026;-55
2023/10/15 02:22:06;;;;;;;;;;;;;;;10.50;86.96;94958.22;5093703;28;1107;-56
2023/10/15 02:24:34;;;;;;;;;;;;;;;10.43;87.14;94954.53;5093488;28;1173;-56
2023/10/15 02:27:08;;;;;;;;;;;;;;;10.51;86.81;94953.72;5093873;28;996;-56
2023/10/15 02:29:35;;;;;;;;;;;;;;;10.46;87.25;94951.53;5093708;28;1905;-56
2023/10/15 02:32:21;;;;;;;;;;;;;;;10.51;87.11;94959.06;5093549;28;1090;-55
2023/10/15 02:34:50;;;;;;;;;;;;;;;10.37;87.38;94965.03;5093862;28;1011;-56
2023/10/15 02:37:23;;;;;;;;;;;;;;;10.33;87.94;94953.84;5093586;28;1023;-57
2023/10/15 02:39:52;;;;;;;;;;;;;;;10.44;87.48;94961.56;5093538;28;1307;-56
2023/10/15 02:42:18;;;;;;;;;;;;;;;10.52;87.08;94956.19;5093603;28;963;-56
2023/10/15 02:44:45;;;;;;;;;;;;;;;10.62;85.99;94949.88;5093438;28;1028;-56
2023/10/15 02:47:19;;;;;;;;;;;;;;;10.41;86.49;94948.50;5093626;28;1044;-58
2023/10/15 02:50:04;;;;;;;;;;;;;;;10.19;86.88;94944.63;5080888;28;1902;-56
2023/10/15 02:52:39;;;;;;;;;;;;;;;10.02;88.74;94950.91;5093624;28;944;-56
2023/10/15 02:55:12;;;;;;;;;;;;;;;10.15;87.72;94945.94;5093649;28;968;-55
2023/10/15 02:57:41;;;;;;;;;;;;;;;10.19;87.50;94954.44;5093253;28;1093;-58
2023/10/15 03:00:32;;;;;;;;;;;;;;;10.17;87.06;94951.97;5093341;28;961;-56
2023/10/15 03:03:06;;;;;;;;;;;;;;;10.18;87.47;94958.13;5093581;28;1047;-55
2023/10/15 03:05:38;;;;;;;;;;;;;;;10.12;87.64;94960.44;5093351;28;1052;-56
2023/10/15 03:08:04;;;;;;;;;;;;;;;10.10;87.56;94956.28;5092074;28;1060;-55
2023/10/15 03:10:44;;;;;;;;;;;;;;;10.09;86.82;94957.25;5093319;28;1906;-55
2023/10/15 03:13:14;;;;;;;;;;;;;;;9.97;86.64;94954.06;5093150;28;1020;-55
2023/10/15 03:15:48;;;;;;;;;;;;;;;9.90;87.34;94961.91;5093297;28;1051;-55
2023/10/15 03:18:15;;;;;;;;;;;;;;;9.96;87.12;94953.22;5093175;28;968;-55
2023/10/15 03:20:49;;;;;;;;;;;;;;;9.87;87.50;94950.69;5093378;28;1115;-56
2023/10/15 03:23:18;;;;;;;;;;;;;;;9.73;88.21;94946.78;5093021;28;1056;-55
2023/10/15 03:25:47;;;;;;;;;;;;;;;9.82;87.50;94953.00;5093002;28;1103;-54
2023/10/15 03:28:14;;;;;;;;;;;;;;;9.75;87.75;94950.13;5093088;28;983;-55
2023/10/15 03:30:44;;;;;;;;;;;;;;;9.76;87.89;94955.31;5093246;28;1914;-56
2023/10/15 03:33:11;;;;;;;;;;;;;;;9.82;87.84;94956.50;5093061;28;1058;-56
2023/10/15 03:35:39;;;;;;;;;;;;;;;9.90;87.99;94945.88;5092793;28;1099;-57
2023/10/15 03:38:09;;;;;;;;;;;;;;;9.90;87.34;94956.56;5093066;28;1055;-56
2023/10/15 03:40:46;;;;;;;;;;;;;;;9.94;87.09;94946.34;5092853;28;1675;-56
2023/10/15 03:43:15;;;;;;;;;;;;;;;9.72;87.99;94948.63;5092930;28;1046;-56
2023/10/15 03:45:50;;;;;;;;;;;;;;;9.58;88.51;94954.59;5092824;28;1024;-56
2023/10/15 03:48:29;;;;;;;;;;;;;;;9.62;88.09;94952.41;5096097;28;968;-57
2023/10/15 03:50:55;;;;;;;;;;;;;;;9.64;88.56;94945.94;5095147;28;1157;-56
2023/10/15 03:53:22;;;;;;;;;;;;;;;9.67;88.65;94947.44;5095307;28;1231;-55
2023/10/15 03:55:51;;;;;;;;;;;;;;;9.70;88.11;94949.78;5096673;28;965;-55
2023/10/15 03:58:18;;;;;;;;;;;;;;;9.72;88.06;94947.81;5096232;28;1084;-55
2023/10/15 04:00:47;;;;;;;;;;;;;;;9.71;87.58;94943.44;5096130;28;1024;-55
2023/10/15 04:03:25;;;;;;;;;;;;;;;9.51;88.18;94942.88;5096442;28;992;-55
2023/10/15 04:06:01;;;;;;;;;;;;;;;9.40;87.94;94935.97;5096179;28;1048;-56
2023/10/15 04:08:27;;;;;;;;;;;;;;;9.45;88.48;94935.50;5096006;28;1981;-57
2023/10/15 04:10:55;;;;;;;;;;;;;;;9.54;88.75;94927.38;5096096;28;1288;-56
2023/10/15 04:13:21;;;;;;;;;;;;;;;9.64;88.62;94929.91;5095858;28;1043;-56
2023/10/15 04:15:50;;;;;;;;;;;;;;;9.71;88.08;94936.28;5096008;28;1052;-56
2023/10/15 04:18:17;;;;;;;;;;;;;;;9.83;88.09;94936.84;5094894;28;961;-57
2023/10/15 04:20:43;;;;;;;;;;;;;;;9.73;88.21;94931.63;5096071;28;1024;-56
2023/10/15 04:23:13;;;;;;;;;;;;;;;9.67;88.71;94926.09;5095902;28;1024;-56
2023/10/15 04:25:39;;;;;;;;;;;;;;;9.60;88.98;94933.06;5096077;28;1007;-55
2023/10/15 04:28:12;;;;;;;;;;;;;;;9.53;89.48;94939.03;5095827;28;1056;-56
2023/10/15 04:30:41;;;;;;;;;;;;;;;9.52;89.15;94944.53;5095702;28;1910;-56
2023/10/15 04:33:18;;;;;;;;;;;;;;;9.51;88.64;94951.72;5094920;28;1051;-55
2023/10/15 04:35:44;;;;;;;;;;;;;;;9.45;89.11;94948.84;5095652;28;1099;-55
2023/10/15 04:38:21;;;;;;;;;;;;;;;9.56;88.73;94952.06;5095491;28;1095;-56
2023/10/15 04:40:59;;;;;;;;;;;;;;;9.58;88.81;94947.41;5095688;28;1063;-55
2023/10/15 04:43:26;;;;;;;;;;;;;;;9.68;88.26;94949.13;5095420;28;1080;-56
2023/10/15 04:46:02;;;;;;;;;;;;;;;9.66;88.41;94945.78;5094515;28;1040;-56
2023/10/15 04:48:33;;;;;;;;;;;;;;;9.62;88.58;94944.41;5095284;28;1910;-56
2023/10/15 04:51:11;;;;;;;;;;;;;;;9.48;89.15;94943.19;5095195;28;1181;-57
2023/10/15 04:53:37;;;;;;;;;;;;;;;9.43;88.63;94933.00;5095247;28;1036;-55
2023/10/15 04:56:04;;;;;;;;;;;;;;;9.40;89.04;94933.31;5095303;28;1111;-55
2023/10/15 04:58:30;;;;;;;;;;;;;;;9.31;89.35;94937.75;5094001;28;1251;-56
2023/10/15 05:00:58;;;;;;;;;;;;;;;9.36;89.31;94939.97;5095191;28;1007;-56
2023/10/15 05:03:24;;;;;;;;;;;;;;;9.44;89.29;94936.50;5095049;28;976;-54
2023/10/15 05:05:51;;;;;;;;;;;;;;;9.42;89.45;94939.31;5095035;28;1103;-56
2023/10/15 05:08:24;;;;;;;;;;;;;;;9.47;89.52;94939.69;5094900;28;1024;-56
2023/10/15 05:10:50;;;;;;;;;;;;;;;9.51;90.33;94942.88;5095098;28;1059;-56
2023/10/15 05:13:17;;;;;;;;;;;;;;;9.69;89.55;94945.44;5095006;28;1024;-56
2023/10/15 05:15:49;;;;;;;;;;;;;;;9.85;88.67;94942.84;5094822;28;1037;-56
2023/10/15 05:18:15;;;;;;;;;;;;;;;9.92;88.84;94949.22;5094584;28;973;-56
2023/10/15 05:20:42;;;;;;;;;;;;;;;9.97;88.97;94951.38;5094925;28;1028;-56
2023/10/15 05:23:09;;;;;;;;;;;;;;;10.10;88.76;94950.94;5094599;28;1033;-56
2023/10/15 05:27:12;;;;;;;;;;;;;;;10.19;88.90;94963.31;5117776;27;1319286;-56
2023/10/15 05:29:39;;;;;;;;;;;;;;;10.42;88.41;94960.06;5152515;27;1028;-56
2023/10/15 05:32:06;;;;;;;;;;;;;;;10.71;86.76;94962.25;5152429;27;1028;-56
2023/10/15 05:34:32;;;;;;;;;;;;;;;10.86;87.23;94957.88;5152309;27;918;-55
2023/10/15 05:36:58;;;;;;;;;;;;;;;11.20;85.57;94951.50;5152251;27;1029;-56
2023/10/15 05:39:24;;;;;;;;;;;;;;;11.45;85.80;94949.63;5152463;27;1044;-56
2023/10/15 05:41:51;;;;;;;;;;;;;;;11.61;85.61;94959.47;5134246;27;1034;-56
2023/10/15 05:44:18;;;;;;;;;;;;;;;11.84;85.20;94948.00;5152311;27;1048;-56
2023/10/15 05:46:46;;;;;;;;;;;;;;;12.62;82.17;94954.28;5152089;27;1902;-56
2023/10/15 05:49:12;;;;;;;;;;;;;;;12.99;80.14;94949.97;5151909;27;1168;-56
2023/10/15 05:51:38;;;;;;;;;;;;;;;13.61;76.62;94954.28;5152037;27;1107;-56
2023/10/15 05:54:04;;;;;;;;;;;;;;;15.31;69.61;94956.63;5152332;27;1019;-56
2023/10/15 05:56:30;;;;;;;;;;;;;;;16.09;65.72;94955.72;5151916;27;1118;-56
2023/10/15 05:58:57;;;;;;;;;;;;;;;16.05;65.81;94959.81;5151938;27;1028;-56
2023/10/15 06:01:23;;;;;;;;;;;;;;;18.19;57.67;94969.88;5133500;27;1090;-56
2023/10/15 06:03:50;;;;;;;;;;;;;;;19.01;55.03;94972.03;5151877;27;1032;-56
2023/10/15 06:06:16;;;;;;;;;;;;;;;17.97;57.59;94968.50;5151594;27;1906;-56
2023/10/15 06:08:43;;;;;;;;;;;;;;;19.19;54.49;94979.44;5152002;27;1027;-56
2023/10/15 06:11:09;;;;;;;;;;;;;;;20.55;50.28;94980.47;5151709;27;1032;-56
2023/10/15 06:13:35;;;;;;;;;;;;;;;21.42;47.73;94984.75;5151922;27;1309;-56
2023/10/15 06:16:03;;;;;;;;;;;;;;;21.83;46.24;94991.22;5151581;27;936;-55
2023/10/15 06:18:30;;;;;;;;;;;;;;;21.99;45.47;94987.81;5151777;27;973;-56
2023/10/15 06:20:56;;;;;;;;;;;;;;;22.28;44.94;94987.94;5151487;27;1035;-56
2023/10/15 06:23:22;;;;;;;;;;;;;;;22.63;44.07;94994.41;5151400;27;1032;-57
2023/10/15 06:25:48;;;;;;;;;;;;;;;23.26;42.65;95000.84;5151103;27;1905;-57
2023/10/15 06:28:14;;;;;;;;;;;;;;;23.47;41.73;95002.91;5133322;27;972;-57
2023/10/15 06:30:41;;;;;;;;;;;;;;;22.87;43.02;94987.00;5151248;27;1115;-57
2023/10/15 06:33:07;;;;;;;;;;;;;;;22.89;42.47;94984.88;5151290;27;965;-57
2023/10/15 06:35:33;;;;;;;;;;;;;;;21.43;45.80;94975.53;5151104;27;981;-56
2023/10/15 06:37:59;;;;;;;;;;;;;;;19.94;49.99;94955.06;5140937;27;1051;-57
2023/10/15 06:40:28;;;;;;;;;;;;;;;19.05;52.43;94951.59;5137547;27;1015;-56
2023/10/15 06:43:00;;;;;;;;;;;;;;;17.98;57.18;94941.22;5119349;27;978;-56
2023/10/15 06:45:27;;;;;;;;;;;;;;;17.88;57.72;94938.94;5118870;27;1982;-56
2023/10/15 06:47:53;;;;;;;;;;;;;;;17.64;58.96;94940.44;5137162;27;1052;-57
2023/10/15 06:50:19;;;;;;;;;;;;;;;17.65;60.48;94939.38;5137044;27;1137;-57
2023/10/15 06:52:46;;;;;;;;;;;;;;;17.43;60.72;94946.88;5137049;27;1060;-56
2023/10/15 06:55:13;;;;;;;;;;;;;;;17.45;60.87;94944.78;5137134;27;1026;-56
2023/10/15 06:57:39;;;;;;;;;;;;;;;17.46;61.54;94940.25;5119025;27;961;-56
2023/10/15 07:00:09;;;;;;;;;;;;;;;17.41;60.75;94938.16;5136965;27;1628;-56
2023/10/15 07:02:36;;;;;;;;;;;;;;;17.65;60.22;94930.44;5137107;27;1063;-56
2023/10/15 07:05:02;;;;;;;;;;;;;;;17.91;58.95;94932.31;5136773;27;1898;-56
2023/10/15 07:07:29;;;;;;;;;;;;;;;18.06;59.55;94932.88;5136983;27;1028;-56
2023/10/15 07:09:55;;;;;;;;;;;;;;;17.99;60.12;94929.34;5136999;27;1047;-56
2023/10/15 07:12:22;;;;;;;;;;;;;;;18.27;59.56;94917.41;5136599;27;1024;-56
2023/10/15 07:14:48;;;;;;;;;;;;;;;18.11;59.71;94918.69;5136404;27;2811;-57
2023/10/15 07:17:16;;;;;;;;;;;;;;;18.16;60.07;94918.91;5136264;27;1032;-56
2023/10/15 07:19:43;;;;;;;;;;;;;;;18.37;59.35;94919.66;5136850;27;1011;-56
2023/10/15 07:22:09;;;;;;;;;;;;;;;18.28;59.45;94908.22;5136705;27;1029;-56
2023/10/15 07:24:35;;;;;;;;;;;;;;;18.50;58.36;94906.06;5136432;27;1059;-56
2023/10/15 07:27:01;;;;;;;;;;;;;;;18.74;58.85;94904.44;5136292;27;1968;-56
2023/10/15 07:29:30;;;;;;;;;;;;;;;18.87;57.82;94898.16;5136645;27;1116;-57
2023/10/15 07:31:56;;;;;;;;;;;;;;;19.18;57.19;94897.31;5136062;27;1167;-56
2023/10/15 07:34:26;;;;;;;;;;;;;;;19.29;56.04;94893.03;5136442;27;981;-56
2023/10/15 07:36:56;;;;;;;;;;;;;;;19.39;56.30;94901.50;5136562;27;1059;-57
2023/10/15 07:39:23;;;;;;;;;;;;;;;19.47;55.76;94901.22;5136252;27;1052;-56
2023/10/15 07:41:49;;;;;;;;;;;;;;;19.25;57.37;94895.34;5136320;27;1293;-55
2023/10/15 07:44:16;;;;;;;;;;;;;;;19.42;55.71;94895.63;5119436;27;2470;-55
2023/10/15 07:46:45;;;;;;;;;;;;;;;19.68;55.63;94893.72;5115679;28;1919;-56
2023/10/15 07:49:16;;;;;;;;;;;;;;;19.77;54.41;94895.13;5116998;27;2535;-56
2023/10/15 07:51:42;;;;;;;;;;;;;;;20.04;54.13;94890.22;5135463;27;3002;-56
2023/10/15 07:54:08;;;;;;;;;;;;;;;20.05;53.69;94888.34;5118025;27;995;-56
2023/10/15 07:56:34;;;;;;;;;;;;;;;19.80;55.75;94881.09;5135847;27;959;-56
2023/10/15 07:59:04;;;;;;;;;;;;;;;19.92;53.83;94875.78;5135806;27;1108;-56
2023/10/15 08:01:31;;;;;;;;;;;;;;;19.81;55.53;94880.06;5135651;27;1086;-55
2023/10/15 08:03:59;;;;;;;;;;;;;;;20.03;54.42;94874.16;5136015;27;1027;-55
2023/10/15 08:06:25;;;;;;;;;;;;;;;20.14;55.17;94869.88;5135483;27;1914;-56
2023/10/15 08:08:51;;;;;;;;;;;;;;;20.25;52.22;94874.53;5135706;27;1015;-55
2023/10/15 08:11:18;;;;;;;;;;;;;;;20.35;52.35;94877.53;5135545;27;1048;-55
2023/10/15 08:13:44;;;;;;;;;;;;;;;20.60;51.67;94877.44;5135520;27;1051;-55
2023/10/15 08:16:10;;;;;;;;;;;;;;;20.68;51.84;94868.16;5117268;27;1115;-55
2023/10/15 08:18:36;;;;;;;;;;;;;;;20.75;52.40;94871.56;5135572;27;961;-55
2023/10/15 08:21:02;;;;;;;;;;;;;;;20.96;51.91;94864.81;5134458;27;2847;-55
2023/10/15 08:23:28;;;;;;;;;;;;;;;21.17;50.85;94868.00;5135384;27;1035;-55
2023/10/15 08:25:54;;;;;;;;;;;;;;;21.23;50.61;94859.75;5135250;27;1994;-56
2023/10/15 08:28:21;;;;;;;;;;;;;;;21.32;50.39;94862.13;5135189;27;995;-56
2023/10/15 08:30:53;;;;;;;;;;;;;;;21.32;50.21;94852.06;5135188;27;1044;-55
2023/10/15 08:33:19;;;;;;;;;;;;;;;21.44;51.26;94847.50;5135367;27;991;-55
2023/10/15 08:35:45;;;;;;;;;;;;;;;21.45;49.88;94856.47;5135462;27;961;-55
2023/10/15 08:38:12;;;;;;;;;;;;;;;21.53;49.82;94849.88;5135293;27;1059;-56
2023/10/15 08:40:41;;;;;;;;;;;;;;;21.41;50.69;94845.22;5135317;27;1036;-56
2023/10/15 08:43:07;;;;;;;;;;;;;;;21.47;50.46;94848.09;5134940;27;1048;-57
2023/10/15 08:45:33;;;;;;;;;;;;;;;21.39;49.82;94841.09;5135015;27;1986;-56
2023/10/15 08:48:01;;;;;;;;;;;;;;;21.44;48.40;94838.53;5134942;27;1067;-57
2023/10/15 08:50:29;;;;;;;;;;;;;;;21.62;47.90;94838.38;5134978;27;1181;-56
2023/10/15 08:52:55;;;;;;;;;;;;;;;21.80;49.58;94834.72;5134937;27;1037;-56
2023/10/15 08:55:22;;;;;;;;;;;;;;;21.98;48.86;94825.56;5134634;27;1091;-56
2023/10/15 08:57:54;;;;;;;;;;;;;;;22.04;48.98;94823.75;5134954;27;1072;-56
2023/10/15 09:00:26;;;;;;;;;;;;;;;22.08;49.35;94826.84;5134740;27;988;-56
2023/10/15 09:02:56;;;;;;;;;;;;;;;22.16;47.16;94823.75;5134777;27;1063;-56
2023/10/15 09:05:25;;;;;;;;;;;;;;;22.23;46.61;94824.41;5134492;27;1906;-56
2023/10/15 09:07:54;;;;;;;;;;;;;;;22.48;46.46;94826.00;5134830;27;1027;-56
2023/10/15 09:10:21;;;;;;;;;;;;;;;22.63;45.58;94823.56;5134785;27;1035;-56
2023/10/15 09:12:48;;;;;;;;;;;;;;;22.71;47.36;94816.91;5134745;27;1051;-56
2023/10/15 09:15:17;;;;;;;;;;;;;;;22.73;46.05;94815.59;5134374;27;1095;-56
2023/10/15 09:17:49;;;;;;;;;;;;;;;22.96;46.59;94803.72;5134679;27;1044;-56
2023/10/15 09:20:26;;;;;;;;;;;;;;;23.12;45.56;94814.91;5134449;27;980;-56
2023/10/15 09:22:57;;;;;;;;;;;;;;;22.98;45.47;94807.03;5134459;27;997;-56
2023/10/15 09:25:27;;;;;;;;;;;;;;;22.91;45.71;94797.38;5134288;28;1906;-56
2023/10/15 09:27:54;;;;;;;;;;;;;;;23.26;45.49;94793.56;5115964;28;1182;-57
2023/10/15 09:30:23;;;;;;;;;;;;;;;23.53;45.65;94791.81;5134585;28;1189;-56
2023/10/15 09:32:50;;;;;;;;;;;;;;;23.75;45.21;94788.28;5134367;28;1003;-56
2023/10/15 09:35:16;;;;;;;;;;;;;;;23.75;45.40;94788.28;5134167;28;1044;-56
2023/10/15 09:37:44;;;;;;;;;;;;;;;23.91;43.88;94789.38;5134222;28;1172;-57
2023/10/15 09:40:18;;;;;;;;;;;;;;;23.96;44.63;94786.69;5134408;28;1061;-57
2023/10/15 09:42:46;;;;;;;;;;;;;;;23.99;43.89;94772.53;5116219;28;1025;-56
2023/10/15 09:45:18;;;;;;;;;;;;;;;24.01;43.46;94780.47;5134083;28;1993;-56
2023/10/15 09:47:52;;;;;;;;;;;;;;;24.23;42.28;94775.00;5115894;28;1037;-56
2023/10/15 09:50:25;;;;;;;;;;;;;;;24.33;42.60;94777.84;5134129;28;1149;-56
2023/10/15 09:53:01;;;;;;;;;;;;;;;24.15;42.55;94774.38;5134402;28;1036;-56
2023/10/15 09:55:28;;;;;;;;;;;;;;;24.22;41.43;94773.34;5133970;28;1044;-56
2023/10/15 09:57:55;;;;;;;;;;;;;;;24.39;41.35;94771.34;5133970;28;1322;-57
2023/10/15 10:00:32;;;;;;;;;;;;;;;24.59;41.14;94757.09;5134238;28;1041;-57
2023/10/15 10:03:10;;;;;;;;;;;;;;;24.48;41.68;94755.31;5134041;28;1044;-57
2023/10/15 10:05:49;;;;;;;;;;;;;;;24.70;41.89;94747.06;5134093;28;1988;-57
2023/10/15 10:08:23;;;;;;;;;;;;;;;24.91;41.85;94745.38;5134173;28;957;-57
2023/10/15 10:11:05;;;;;;;;;;;;;;;25.00;41.37;94742.97;5133875;28;1028;-57
2023/10/15 10:13:34;;;;;;;;;;;;;;;24.94;41.41;94728.41;5136859;27;1028;-56
2023/10/15 10:16:04;;;;;;;;;;;;;;;24.75;40.86;94730.72;5137930;27;1043;-56
2023/10/15 10:18:33;;;;;;;;;;;;;;;24.73;41.26;94728.25;5137752;27;980;-57
2023/10/15 10:21:06;;;;;;;;;;;;;;;24.71;40.69;94721.41;5137769;27;1032;-57
2023/10/15 10:23:32;;;;;;;;;;;;;;;25.00;41.42;94710.13;5137932;27;1007;-57
2023/10/15 10:25:58;;;;;;;;;;;;;;;25.00;39.88;94716.44;5137616;27;1918;-57
2023/10/15 10:28:25;;;;;;;;;;;;;;;25.22;40.27;94716.31;5137578;27;1099;-57
2023/10/15 10:30:55;;;;;;;;;;;;;;;25.36;39.49;94711.22;5137564;27;1084;-57
2023/10/15 10:33:56;;;;;;;;;;;;;;;25.17;39.18;94713.53;5137504;27;1037;-57
2023/10/15 10:36:27;;;;;;;;;;;;;;;25.38;39.15;94705.50;5093738;27;1448;-58
2023/10/15 10:38:59;;;;;;;;;;;;;;;25.43;37.90;94703.63;5137613;27;964;-57
2023/10/15 10:41:46;;;;;;;;;;;;;;;25.50;37.87;94698.72;5137589;27;1055;-56
2023/10/15 10:44:33;;;;;;;;;;;;;;;25.56;38.34;94696.84;5137143;27;1248;-56
2023/10/15 10:47:15;;;;;;;;;;;;;;;25.34;37.90;94691.50;5123729;27;2280;-57
2023/10/15 10:49:41;;;;;;;;;;;;;;;25.41;38.77;94688.56;5129989;27;1157;-57
2023/10/15 10:52:16;;;;;;;;;;;;;;;25.48;38.87;94683.69;5116509;28;1052;-56
2023/10/15 10:54:45;;;;;;;;;;;;;;;25.54;38.90;94679.88;5116746;28;1016;-57
2023/10/15 10:57:12;;;;;;;;;;;;;;;25.68;38.42;94680.19;5116633;28;945;-57
2023/10/15 10:59:39;;;;;;;;;;;;;;;25.76;38.09;94670.63;5098411;28;1044;-57
2023/10/15 11:02:06;;;;;;;;;;;;;;;25.66;38.41;94668.69;5116597;28;1011;-57
2023/10/15 11:04:32;;;;;;;;;;;;;;;25.72;38.96;94662.13;5116584;28;1039;-57
2023/10/15 11:06:58;;;;;;;;;;;;;;;25.76;38.81;94659.69;5116245;28;1905;-57
2023/10/15 11:09:25;;;;;;;;;;;;;;;25.82;38.73;94650.38;5097850;28;1386;-57
2023/10/15 11:11:52;;;;;;;;;;;;;;;25.84;38.92;94651.78;5116237;28;1037;-57
2023/10/15 11:14:26;;;;;;;;;;;;;;;25.87;38.54;94651.22;5116406;28;953;-57
2023/10/15 11:16:56;;;;;;;;;;;;;;;25.83;38.33;94643.84;5098146;28;1517;-57
2023/10/15 11:19:23;;;;;;;;;;;;;;;25.80;38.41;94633.41;5116301;28;1051;-58
2023/10/15 11:21:50;;;;;;;;;;;;;;;25.86;38.52;94633.16;5115983;28;1025;-58
2023/10/15 11:24:16;;;;;;;;;;;;;;;26.00;38.73;94628.03;5116057;28;1007;-57
2023/10/15 11:26:44;;;;;;;;;;;;;;;25.97;37.39;94620.38;5115624;28;1984;-57
2023/10/15 11:29:12;;;;;;;;;;;;;;;25.81;38.47;94626.84;5116060;28;1256;-57
2023/10/15 11:31:42;;;;;;;;;;;;;;;25.71;37.58;94636.69;5115876;28;991;-57
2023/10/15 11:34:12;;;;;;;;;;;;;;;25.69;38.05;94625.19;5115797;28;1068;-57
2023/10/15 11:36:39;;;;;;;;;;;;;;;25.85;38.78;94617.81;5115714;28;1052;-57
2023/10/15 11:39:29;;;;;;;;;;;;;;;25.85;38.53;94612.34;5115828;28;1039;-57
2023/10/15 11:41:52;;;;;;;;;;;;;;;25.87;37.29;94615.63;5115429;28;1190;-57
2023/10/15 11:44:26;;;;;;;;;;;;;;;25.94;37.86;94609.13;5115448;28;1107;-57
2023/10/15 11:47:00;;;;;;;;;;;;;;;25.95;36.73;94611.56;5115647;28;1931;-57
2023/10/15 11:49:27;;;;;;;;;;;;;;;25.98;37.80;94607.50;5102543;27;1158;-57
2023/10/15 11:51:56;;;;;;;;;;;;;;;25.95;37.58;94608.84;5135924;27;1032;-57
2023/10/15 11:54:32;;;;;;;;;;;;;;;26.05;38.42;94608.06;5135831;27;1000;-57
2023/10/15 11:57:04;;;;;;;;;;;;;;;26.05;37.49;94599.84;5108204;28;1116;-57
2023/10/15 11:59:38;;;;;;;;;;;;;;;26.02;37.20;94601.19;5115148;28;1087;-57
2023/10/15 12:02:04;;;;;;;;;;;;;;;25.65;37.84;94590.38;5115456;28;1128;-57
2023/10/15 12:04:30;;;;;;;;;;;;;;;25.56;36.95;94590.09;5097282;28;1005;-57
2023/10/15 12:06:57;;;;;;;;;;;;;;;25.57;38.04;94585.44;5115256;28;1906;-57
2023/10/15 12:09:26;;;;;;;;;;;;;;;25.58;37.50;94581.63;5096927;28;1036;-57
2023/10/15 12:11:52;;;;;;;;;;;;;;;25.59;37.35;94586.00;5115297;28;1037;-57
2023/10/15 12:14:18;;;;;;;;;;;;;;;25.72;37.24;94580.00;5114805;28;1052;-57
2023/10/15 12:16:45;;;;;;;;;;;;;;;25.78;37.38;94581.69;5115140;28;965;-57
2023/10/15 12:19:11;;;;;;;;;;;;;;;25.85;36.79;94584.97;5114967;28;1109;-56
2023/10/15 12:21:37;;;;;;;;;;;;;;;26.00;37.53;94583.38;5114906;28;1119;-56
2023/10/15 12:24:11;;;;;;;;;;;;;;;25.97;35.93;94583.91;5114769;28;1044;-57
2023/10/15 12:26:37;;;;;;;;;;;;;;;25.89;37.23;94588.81;5114499;28;1917;-56
2023/10/15 12:29:03;;;;;;;;;;;;;;;25.81;36.20;94588.53;5117960;27;2607;-58
2023/10/15 12:31:30;;;;;;;;;;;;;;;25.71;37.01;94587.41;5135158;27;1529;-58
2023/10/15 12:33:56;;;;;;;;;;;;;;;25.65;37.03;94588.50;5135479;27;1028;-58
2023/10/15 12:36:22;;;;;;;;;;;;;;;25.56;38.03;94581.06;5133208;27;3016;-56
2023/10/15 12:38:49;;;;;;;;;;;;;;;25.51;37.24;94582.69;5135031;27;1313;-57
2023/10/15 12:41:21;;;;;;;;;;;;;;;25.47;37.31;94580.75;5135163;27;1016;-56
2023/10/15 12:43:48;;;;;;;;;;;;;;;25.34;37.95;94571.13;5136599;27;1029;-57
2023/10/15 12:46:14;;;;;;;;;;;;;;;25.27;37.04;94568.66;5134955;27;1910;-56
2023/10/15 12:48:40;;;;;;;;;;;;;;;25.23;36.06;94566.72;5134843;27;1036;-56
2023/10/15 12:51:06;;;;;;;;;;;;;;;25.28;38.53;94561.25;5134774;27;1212;-57
2023/10/15 12:53:32;;;;;;;;;;;;;;;25.40;37.15;94561.88;5134801;27;969;-56
2023/10/15 12:55:58;;;;;;;;;;;;;;;25.58;35.98;94567.94;5134910;27;1075;-56
2023/10/15 12:58:24;;;;;;;;;;;;;;;25.79;36.45;94566.88;5134612;27;1035;-57
2023/10/15 13:00:52;;;;;;;;;;;;;;;25.85;36.82;94565.78;5135134;27;999;-57
2023/10/15 13:03:18;;;;;;;;;;;;;;;25.78;36.83;94557.03;5134821;27;1518;-56
2023/10/15 13:05:45;;;;;;;;;;;;;;;25.61;36.40;94562.75;5134562;27;2003;-56
2023/10/15 13:08:11;;;;;;;;;;;;;;;25.39;36.58;94551.19;5134849;27;999;-57
2023/10/15 13:10:37;;;;;;;;;;;;;;;25.42;36.38;94553.38;5134584;27;1969;-56
2023/10/15 13:13:04;;;;;;;;;;;;;;;25.43;37.04;94553.09;5134864;27;980;-56
2023/10/15 13:15:30;;;;;;;;;;;;;;;25.29;36.08;94554.72;5134442;27;1079;-56
2023/10/15 13:17:56;;;;;;;;;;;;;;;25.31;36.66;94549.81;5134665;27;969;-56